createdAt,value
2018-04-08T00:01:37.136Z,62.00
2018-04-08T00:04:04.044Z,62.20
2018-04-08T00:06:31.008Z,62.60
2018-04-08T00:08:57.854Z,63.10
2018-04-08T00:11:24.840Z,63.10
2018-04-08T00:13:51.794Z,63.70
2018-04-08T00:16:18.743Z,63.60
2018-04-08T00:18:45.594Z,63.70
2018-04-08T00:21:12.437Z,63.60
2018-04-08T00:23:39.299Z,63.80
2018-04-08T00:26:06.175Z,63.90
2018-04-08T00:28:33.033Z,63.80
2018-04-08T00:30:59.899Z,64.30
2018-04-08T00:33:26.836Z,64.20
2018-04-08T00:35:53.696Z,63.80
2018-04-08T00:38:20.549Z,64.10
2018-04-08T00:40:47.399Z,64.20
2018-04-08T00:43:14.248Z,63.90
2018-04-08T00:45:41.088Z,64.20
2018-04-08T00:48:08.348Z,63.90
2018-04-08T00:50:35.208Z,63.90
2018-04-08T00:53:02.565Z,64.10
2018-04-08T00:55:29.422Z,64.10
2018-04-08T00:57:56.262Z,63.90
2018-04-08T01:00:23.120Z,64.10
2018-04-08T01:02:50.140Z,63.90
2018-04-08T01:05:17.002Z,63.60
2018-04-08T01:07:43.852Z,63.60
2018-04-08T01:10:10.830Z,63.70
2018-04-08T01:12:37.675Z,63.90
2018-04-08T01:15:04.533Z,63.90
2018-04-08T01:17:31.380Z,63.70
2018-04-08T01:19:58.661Z,64.00
2018-04-08T01:22:25.526Z,64.00
2018-04-08T01:24:52.376Z,64.00
2018-04-08T01:27:19.330Z,64.00
2018-04-08T01:29:46.170Z,64.10
2018-04-08T01:32:13.026Z,64.20
2018-04-08T01:34:39.906Z,64.50
2018-04-08T01:37:06.864Z,64.20
2018-04-08T01:39:33.710Z,64.40
2018-04-08T01:42:00.669Z,64.60
2018-04-08T01:44:27.637Z,64.80
2018-04-08T01:46:54.523Z,65.20
2018-04-08T01:49:21.388Z,64.90
2018-04-08T01:51:48.301Z,64.90
2018-04-08T01:54:15.173Z,65.10
2018-04-08T01:56:42.012Z,65.10
2018-04-08T01:59:08.976Z,65.20
2018-04-08T02:01:35.818Z,65.10
2018-04-08T02:04:02.660Z,65.00
2018-04-08T02:06:29.917Z,65.20
2018-04-08T02:08:56.813Z,65.20
2018-04-08T02:11:23.779Z,65.30
2018-04-08T02:13:50.621Z,65.50
2018-04-08T02:16:17.483Z,65.70
2018-04-08T02:18:44.440Z,65.60
2018-04-08T02:21:11.717Z,66.10
2018-04-08T02:23:38.561Z,66.10
2018-04-08T02:26:05.532Z,66.40
2018-04-08T02:28:32.373Z,66.60
2018-04-08T02:30:59.345Z,66.60
2018-04-08T02:33:26.324Z,66.90
2018-04-08T02:35:53.172Z,67.10
2018-04-08T02:38:20.010Z,67.00
2018-04-08T02:40:46.889Z,67.30
2018-04-08T02:43:13.841Z,67.60
2018-04-08T02:45:40.699Z,67.20
2018-04-08T02:48:07.657Z,67.40
2018-04-08T02:50:34.519Z,67.40
2018-04-08T02:53:01.369Z,67.80
2018-04-08T02:55:28.279Z,67.60
2018-04-08T02:57:55.197Z,67.60
2018-04-08T03:00:22.116Z,67.30
2018-04-08T03:02:49.356Z,67.20
2018-04-08T03:05:16.222Z,67.20
2018-04-08T03:07:43.123Z,67.30
2018-04-08T03:10:10.092Z,67.80
2018-04-08T03:12:36.930Z,67.60
2018-04-08T03:15:03.768Z,67.60
2018-04-08T03:17:31.064Z,67.70
2018-04-08T03:19:57.921Z,67.70
2018-04-08T03:22:24.763Z,67.60
2018-04-08T03:24:51.842Z,67.60
2018-04-08T03:27:18.694Z,67.70
2018-04-08T03:29:45.562Z,67.70
2018-04-08T03:32:12.504Z,67.70
2018-04-08T03:34:39.358Z,67.70
2018-04-08T03:37:06.217Z,67.70
2018-04-08T03:39:33.080Z,67.50
2018-04-08T03:41:59.941Z,67.40
2018-04-08T03:44:26.909Z,67.70
2018-04-08T03:46:53.775Z,67.50
2018-04-08T03:49:20.720Z,67.70
2018-04-08T03:51:47.770Z,67.60
2018-04-08T03:54:15.049Z,67.70
2018-04-08T03:56:41.896Z,67.70
2018-04-08T03:59:08.864Z,67.90
2018-04-08T04:01:35.713Z,68.10
2018-04-08T04:04:02.585Z,68.10
2018-04-08T04:06:29.457Z,68.00
2018-04-08T04:08:56.541Z,68.30
2018-04-08T04:11:23.465Z,68.30
2018-04-08T04:13:50.324Z,68.40
2018-04-08T04:16:17.164Z,68.30
2018-04-08T04:18:56.058Z,68.60
2018-04-08T04:21:34.921Z,68.70
2018-04-08T04:24:14.241Z,68.80
2018-04-08T04:26:41.182Z,68.80
2018-04-08T04:29:08.025Z,68.90
2018-04-08T04:31:34.889Z,69.20
2018-04-08T04:34:01.750Z,69.10
2018-04-08T04:36:28.585Z,69.10
2018-04-08T04:38:55.563Z,69.20
2018-04-08T04:41:22.434Z,69.10
2018-04-08T04:43:49.369Z,69.10
2018-04-08T04:46:16.207Z,67.00
2018-04-08T04:48:43.084Z,67.90
2018-04-08T04:51:09.959Z,67.90
2018-04-08T04:53:36.901Z,68.00
2018-04-08T04:56:03.747Z,67.90
2018-04-08T04:58:30.615Z,68.00
2018-04-08T05:00:57.469Z,68.10
2018-04-08T05:03:24.325Z,68.30
2018-04-08T05:05:51.284Z,68.50
2018-04-08T05:08:18.132Z,68.70
2018-04-08T05:10:44.973Z,68.80
2018-04-08T05:13:12.277Z,68.40
2018-04-08T05:15:39.128Z,68.40
2018-04-08T05:18:05.977Z,68.40
2018-04-08T05:20:32.840Z,68.30
2018-04-08T05:22:59.694Z,68.10
2018-04-08T05:25:26.558Z,67.70
2018-04-08T05:27:53.513Z,67.60
2018-04-08T05:30:20.376Z,67.30
2018-04-08T05:32:47.255Z,67.50
2018-04-08T05:35:14.181Z,67.20
2018-04-08T05:37:41.146Z,66.90
2018-04-08T05:40:08.100Z,66.70
2018-04-08T05:42:34.969Z,66.80
2018-04-08T05:45:01.808Z,66.40
2018-04-08T05:47:28.648Z,66.00
2018-04-08T05:49:55.536Z,66.40
2018-04-08T05:52:22.413Z,66.00
2018-04-08T05:54:49.262Z,66.40
2018-04-08T05:57:16.208Z,66.00
2018-04-08T05:59:43.061Z,65.40
2018-04-08T06:02:10.025Z,65.40
2018-04-08T06:04:36.985Z,65.30
2018-04-08T06:07:03.832Z,65.20
2018-04-08T06:09:30.705Z,65.20
2018-04-08T06:11:57.675Z,65.00
2018-04-08T06:14:24.532Z,64.20
2018-04-08T06:16:51.581Z,64.10
2018-04-08T06:19:18.460Z,63.40
2018-04-08T06:21:45.297Z,63.40
2018-04-08T06:24:12.143Z,62.90
2018-04-08T06:26:39.213Z,62.90
2018-04-08T06:29:06.057Z,62.80
2018-04-08T06:31:32.932Z,62.50
2018-04-08T06:33:59.796Z,62.40
2018-04-08T06:36:26.661Z,62.20
2018-04-08T06:38:53.630Z,61.70
2018-04-08T06:41:20.560Z,61.80
2018-04-08T06:43:47.506Z,62.10
2018-04-08T06:46:14.789Z,61.70
2018-04-08T06:48:41.634Z,61.70
2018-04-08T06:51:08.489Z,61.90
2018-04-08T06:53:35.326Z,61.70
2018-04-08T06:56:02.652Z,61.70
2018-04-08T06:58:29.491Z,61.70
2018-04-08T07:00:56.357Z,61.60
2018-04-08T07:03:23.225Z,61.60
2018-04-08T07:05:50.065Z,61.50
2018-04-08T07:08:17.008Z,61.60
2018-04-08T07:10:43.877Z,62.00
2018-04-08T07:13:10.720Z,61.40
2018-04-08T07:15:37.788Z,61.10
2018-04-08T07:18:04.671Z,61.30
2018-04-08T07:20:31.622Z,61.10
2018-04-08T07:22:58.498Z,61.00
2018-04-08T07:25:25.423Z,60.90
2018-04-08T07:27:52.322Z,61.00
2018-04-08T07:30:19.241Z,61.10
2018-04-08T07:32:46.091Z,60.80
2018-04-08T07:35:12.919Z,60.80
2018-04-08T07:37:40.219Z,60.30
2018-04-08T07:40:07.188Z,60.30
2018-04-08T07:42:34.152Z,60.40
2018-04-08T07:45:01.000Z,60.60
2018-04-08T07:47:27.857Z,60.90
2018-04-08T07:49:54.860Z,60.80
2018-04-08T07:52:21.674Z,60.70
2018-04-08T07:54:48.544Z,60.60
2018-04-08T07:57:15.384Z,59.90
2018-04-08T07:59:42.345Z,60.20
2018-04-08T08:02:09.200Z,59.60
2018-04-08T08:04:36.245Z,59.30
2018-04-08T08:07:03.673Z,59.80
2018-04-08T08:09:31.000Z,59.80
2018-04-08T08:11:57.850Z,59.80
2018-04-08T08:14:24.835Z,58.80
2018-04-08T08:16:51.702Z,60.20
2018-04-08T08:19:18.640Z,58.90
2018-04-08T08:21:45.517Z,58.10
2018-04-08T08:24:12.453Z,58.50
2018-04-08T08:26:39.411Z,58.50
2018-04-08T08:29:06.265Z,58.20
2018-04-08T08:31:33.127Z,57.70
2018-04-08T08:33:59.981Z,58.20
2018-04-08T08:36:26.840Z,58.20
2018-04-08T08:38:53.708Z,58.50
2018-04-08T08:41:20.554Z,57.10
2018-04-08T08:43:47.399Z,58.30
2018-04-08T08:46:14.307Z,58.20
2018-04-08T08:48:41.173Z,58.20
2018-04-08T08:51:08.085Z,57.30
2018-04-08T08:53:35.026Z,57.00
2018-04-08T08:56:02.314Z,57.20
2018-04-08T08:58:29.260Z,57.20
2018-04-08T09:00:56.109Z,57.20
2018-04-08T09:03:22.981Z,57.40
2018-04-08T09:05:49.822Z,56.80
2018-04-08T09:08:16.784Z,57.40
2018-04-08T09:10:44.073Z,57.70
2018-04-08T09:13:11.035Z,57.70
2018-04-08T09:15:37.988Z,57.40
2018-04-08T09:18:04.859Z,56.80
2018-04-08T09:20:31.709Z,56.90
2018-04-08T09:22:58.576Z,57.00
2018-04-08T09:25:25.456Z,57.00
2018-04-08T09:27:52.364Z,57.40
2018-04-08T09:30:19.225Z,57.00
2018-04-08T09:32:46.095Z,57.30
2018-04-08T09:35:13.067Z,57.30
2018-04-08T09:37:39.908Z,57.20
2018-04-08T09:40:06.765Z,57.00
2018-04-08T09:42:33.705Z,57.00
2018-04-08T09:45:00.972Z,56.60
2018-04-08T09:47:27.835Z,56.60
2018-04-08T09:49:54.800Z,57.20
2018-04-08T09:52:21.668Z,56.90
2018-04-08T09:54:48.508Z,57.10
2018-04-08T09:57:15.373Z,56.90
2018-04-08T09:59:42.220Z,56.50
2018-04-08T10:02:09.212Z,56.70
2018-04-08T10:04:36.090Z,56.40
2018-04-08T10:07:02.955Z,56.10
2018-04-08T10:09:29.804Z,56.40
2018-04-08T10:11:56.703Z,56.80
2018-04-08T10:14:23.563Z,56.50
2018-04-08T10:16:50.408Z,56.10
2018-04-08T10:19:17.273Z,55.50
2018-04-08T10:21:44.117Z,55.40
2018-04-08T10:24:11.001Z,55.00
2018-04-08T10:26:37.954Z,55.30
2018-04-08T10:29:04.847Z,55.30
2018-04-08T10:31:31.661Z,55.50
2018-04-08T10:33:58.521Z,55.50
2018-04-08T10:36:25.437Z,54.70
2018-04-08T10:38:52.275Z,54.40
2018-04-08T10:41:19.153Z,55.80
2018-04-08T10:43:46.009Z,55.30
2018-04-08T10:46:12.873Z,54.40
2018-04-08T10:48:39.786Z,54.60
2018-04-08T10:51:06.672Z,54.70
2018-04-08T10:53:33.533Z,54.40
2018-04-08T10:56:00.380Z,54.40
2018-04-08T10:58:27.244Z,54.10
2018-04-08T11:00:54.092Z,53.70
2018-04-08T11:03:21.033Z,54.10
2018-04-08T11:05:47.989Z,54.20
2018-04-08T11:08:14.937Z,54.60
2018-04-08T11:10:41.825Z,54.40
2018-04-08T11:13:08.685Z,54.50
2018-04-08T11:15:35.541Z,54.10
2018-04-08T11:18:02.473Z,54.50
2018-04-08T11:20:29.338Z,54.10
2018-04-08T11:22:56.283Z,53.50
2018-04-08T11:25:23.148Z,53.40
2018-04-08T11:27:50.105Z,53.10
2018-04-08T11:30:16.963Z,53.50
2018-04-08T11:32:43.904Z,53.20
2018-04-08T11:35:10.869Z,52.60
2018-04-08T11:37:37.761Z,52.50
2018-04-08T11:40:04.709Z,52.70
2018-04-08T11:42:31.657Z,52.70
2018-04-08T11:44:58.504Z,52.10
2018-04-08T11:47:25.369Z,52.00
2018-04-08T11:49:52.311Z,52.20
2018-04-08T11:52:19.278Z,52.10
2018-04-08T11:54:46.133Z,52.20
2018-04-08T11:57:13.141Z,52.70
2018-04-08T11:59:39.984Z,53.20
2018-04-08T12:02:07.250Z,52.80
2018-04-08T12:04:34.297Z,52.30
2018-04-08T12:07:01.200Z,52.00
2018-04-08T12:09:28.466Z,51.90
2018-04-08T12:11:55.467Z,51.90
2018-04-08T12:14:22.418Z,52.40
2018-04-08T12:16:49.272Z,50.90
2018-04-08T12:19:16.233Z,51.00
2018-04-08T12:21:43.088Z,51.00
2018-04-08T12:24:09.945Z,51.10
2018-04-08T12:26:36.801Z,50.70
2018-04-08T12:29:03.775Z,49.30
2018-04-08T12:31:30.633Z,48.10
2018-04-08T12:33:57.485Z,47.80
2018-04-08T12:36:24.437Z,48.30
2018-04-08T12:38:51.309Z,48.50
2018-04-08T12:41:20.273Z,48.70
2018-04-08T12:43:47.513Z,48.50
2018-04-08T12:46:14.377Z,48.50
2018-04-08T12:48:41.285Z,48.50
2018-04-08T12:51:08.144Z,48.10
2018-04-08T12:53:35.092Z,47.90
2018-04-08T12:56:02.030Z,48.20
2018-04-08T12:58:29.285Z,48.80
2018-04-08T13:00:56.242Z,48.80
2018-04-08T13:03:23.552Z,48.70
2018-04-08T13:05:50.412Z,48.70
2018-04-08T13:08:17.266Z,48.10
2018-04-08T13:10:44.122Z,46.90
2018-04-08T13:13:10.976Z,47.30
2018-04-08T13:15:37.938Z,47.40
2018-04-08T13:18:04.796Z,47.90
2018-04-08T13:20:31.756Z,48.00
2018-04-08T13:22:58.617Z,48.30
2018-04-08T13:25:25.465Z,46.80
2018-04-08T13:27:52.346Z,46.80
2018-04-08T13:30:19.189Z,46.80
2018-04-08T13:32:46.028Z,46.90
2018-04-08T13:35:12.888Z,46.90
2018-04-08T13:37:39.730Z,47.80
2018-04-08T13:40:06.584Z,48.00
2018-04-08T13:42:33.887Z,48.50
2018-04-08T13:45:00.944Z,48.60
2018-04-08T13:47:27.790Z,48.40
2018-04-08T13:49:54.643Z,48.70
2018-04-08T13:52:21.614Z,48.90
2018-04-08T13:54:48.563Z,48.40
2018-04-08T13:57:15.412Z,48.60
2018-04-08T13:59:42.288Z,48.60
2018-04-08T14:02:09.158Z,49.10
2018-04-08T14:04:36.097Z,47.20
2018-04-08T14:07:02.949Z,46.80
2018-04-08T14:09:29.944Z,47.20
2018-04-08T14:11:56.875Z,47.20
2018-04-08T14:14:23.754Z,47.40
2018-04-08T14:16:50.598Z,46.90
2018-04-08T14:19:17.554Z,46.50
2018-04-08T14:21:44.412Z,47.10
2018-04-08T14:24:11.361Z,46.90
2018-04-08T14:26:38.319Z,47.50
2018-04-08T14:29:05.181Z,48.00
2018-04-08T14:31:32.044Z,48.40
2018-04-08T14:33:58.903Z,48.00
2018-04-08T14:36:25.745Z,48.20
2018-04-08T14:38:52.704Z,48.40
2018-04-08T14:41:19.581Z,47.20
2018-04-08T14:43:46.527Z,47.40
2018-04-08T14:46:13.371Z,48.10
2018-04-08T14:48:40.237Z,47.70
2018-04-08T14:51:07.105Z,47.70
2018-04-08T14:56:07.326Z,47.50
2018-04-08T14:58:34.569Z,47.40
2018-04-08T15:01:01.504Z,47.40
2018-04-08T15:03:28.725Z,47.60
2018-04-08T15:05:55.962Z,47.00
2018-04-08T15:08:22.823Z,47.00
2018-04-08T15:10:49.737Z,47.60
2018-04-08T15:13:16.693Z,47.70
2018-04-08T15:15:43.559Z,47.70
2018-04-08T15:18:10.510Z,47.00
2018-04-08T15:20:37.406Z,46.40
2018-04-08T15:23:04.247Z,46.40
2018-04-08T15:25:31.205Z,46.30
2018-04-08T15:27:58.149Z,46.90
2018-04-08T15:30:25.097Z,46.80
2018-04-08T15:32:52.101Z,46.90
2018-04-08T15:35:18.969Z,46.30
2018-04-08T15:37:45.804Z,46.90
2018-04-08T15:40:12.733Z,47.00
2018-04-08T15:42:39.596Z,46.80
2018-04-08T15:45:06.448Z,46.60
2018-04-08T15:47:33.425Z,46.90
2018-04-08T15:50:00.281Z,47.10
2018-04-08T15:52:27.140Z,46.60
2018-04-08T15:54:53.981Z,46.30
2018-04-08T15:57:20.868Z,45.30
2018-04-08T15:59:47.742Z,47.40
2018-04-08T16:02:14.592Z,44.70
2018-04-08T16:04:41.433Z,43.60
2018-04-08T16:07:08.372Z,44.60
2018-04-08T16:09:35.231Z,43.60
2018-04-08T16:12:02.288Z,44.40
2018-04-08T16:14:29.153Z,44.30
2018-04-08T16:16:56.008Z,44.10
2018-04-08T16:19:22.954Z,42.40
2018-04-08T16:21:49.820Z,42.90
2018-04-08T16:24:16.688Z,42.30
2018-04-08T16:26:43.569Z,41.90
2018-04-08T16:29:10.441Z,42.30
2018-04-08T16:31:37.289Z,42.80
2018-04-08T16:34:04.157Z,42.90
2018-04-08T16:36:31.016Z,44.10
2018-04-08T16:38:57.926Z,43.90
2018-04-08T16:41:24.785Z,44.50
2018-04-08T16:43:51.636Z,44.70
2018-04-08T16:46:18.496Z,44.90
2018-04-08T16:48:45.349Z,45.40
2018-04-08T16:51:12.192Z,46.20
2018-04-08T16:53:39.059Z,46.40
2018-04-08T16:56:05.917Z,46.90
2018-04-08T16:58:32.793Z,46.90
2018-04-08T17:00:59.734Z,47.40
2018-04-08T17:03:26.693Z,47.80
2018-04-08T17:05:53.536Z,47.70
2018-04-08T17:08:20.397Z,48.00
2018-04-08T17:10:47.242Z,47.90
2018-04-08T17:13:14.104Z,48.20
2018-04-08T17:15:40.943Z,48.60
2018-04-08T17:18:08.265Z,48.80
2018-04-08T17:20:35.130Z,48.70
2018-04-08T17:23:01.985Z,49.00
2018-04-08T17:25:28.968Z,49.10
2018-04-08T17:27:55.877Z,49.60
2018-04-08T17:30:22.774Z,49.30
2018-04-08T17:32:49.685Z,49.40
2018-04-08T17:35:16.535Z,49.50
2018-04-08T17:37:43.410Z,49.90
2018-04-08T17:40:10.276Z,49.90
2018-04-08T17:42:37.127Z,50.10
2018-04-08T17:45:04.076Z,50.30
2018-04-08T17:47:30.908Z,50.30
2018-04-08T17:49:58.187Z,50.50
2018-04-08T17:52:25.152Z,50.70
2018-04-08T17:54:52.019Z,50.60
2018-04-08T17:57:18.883Z,50.80
2018-04-08T17:59:45.737Z,50.90
2018-04-08T18:02:12.690Z,50.90
2018-04-08T18:04:39.580Z,51.10
2018-04-08T18:07:06.433Z,51.30
2018-04-08T18:09:33.360Z,51.60
2018-04-08T18:12:00.228Z,51.70
2018-04-08T18:14:27.372Z,51.70
2018-04-08T18:16:54.236Z,51.90
2018-04-08T18:19:21.105Z,53.00
2018-04-08T18:21:48.053Z,53.20
2018-04-08T18:24:14.911Z,53.20
2018-04-08T18:26:41.777Z,53.30
2018-04-08T18:29:08.652Z,53.70
2018-04-08T18:31:35.520Z,54.40
2018-04-08T18:34:02.378Z,54.70
2018-04-08T18:36:29.232Z,55.10
2018-04-08T18:38:56.147Z,55.70
2018-04-08T18:41:23.025Z,55.10
2018-04-08T18:43:49.859Z,55.30
2018-04-08T18:46:16.696Z,55.40
2018-04-08T18:48:43.955Z,56.50
2018-04-08T18:51:10.854Z,56.30
2018-04-08T18:53:37.838Z,56.30
2018-04-08T18:56:04.685Z,56.10
2018-04-08T18:58:31.542Z,56.00
2018-04-08T19:00:58.483Z,56.70
2018-04-08T19:03:25.345Z,57.20
2018-04-08T19:05:52.300Z,57.50
2018-04-08T19:08:19.157Z,57.80
2018-04-08T19:10:46.004Z,57.60
2018-04-08T19:13:12.865Z,57.80
2018-04-08T19:15:39.825Z,57.70
2018-04-08T19:18:06.688Z,57.80
2018-04-08T19:20:33.550Z,58.10
2018-04-08T19:23:00.434Z,57.90
2018-04-08T19:25:27.280Z,58.30
2018-04-08T19:27:54.225Z,58.40
2018-04-08T19:30:21.073Z,58.50
2018-04-08T19:32:47.933Z,59.10
2018-04-08T19:35:14.892Z,59.50
2018-04-08T19:37:41.749Z,59.60
2018-04-08T19:40:09.352Z,59.70
2018-04-08T19:42:36.686Z,59.90
2018-04-08T19:45:03.536Z,59.90
2018-04-08T19:47:30.426Z,60.50
2018-04-08T19:49:57.292Z,60.60
2018-04-08T19:52:24.232Z,60.90
2018-04-08T19:54:51.163Z,60.70
2018-04-08T19:57:18.440Z,60.90
2018-04-08T19:59:45.272Z,60.90
2018-04-08T20:02:12.730Z,60.30
2018-04-08T20:04:39.802Z,60.30
2018-04-08T20:07:07.104Z,60.40
2018-04-08T20:09:33.978Z,60.40
2018-04-08T20:12:00.928Z,60.90
2018-04-08T20:14:27.872Z,61.10
2018-04-08T20:16:54.713Z,61.40
2018-04-08T20:19:21.596Z,61.10
2018-04-08T20:21:48.450Z,61.40
2018-04-08T20:24:15.336Z,61.50
2018-04-08T20:26:42.273Z,61.90
2018-04-08T20:29:09.113Z,61.90
2018-04-08T20:31:35.993Z,61.90
2018-04-08T20:34:02.941Z,62.00
2018-04-08T20:36:29.834Z,62.00
2018-04-08T20:38:56.760Z,61.70
2018-04-08T20:41:23.617Z,61.90
2018-04-08T20:43:50.477Z,61.80
2018-04-08T20:46:17.325Z,62.20
2018-04-08T20:48:44.291Z,62.10
2018-04-08T20:51:11.163Z,62.60
2018-04-08T20:53:38.950Z,62.40
2018-04-08T20:56:05.881Z,62.40
2018-04-08T20:58:32.736Z,62.30
2018-04-08T21:00:59.593Z,62.20
2018-04-08T21:03:26.500Z,62.50
2018-04-08T21:05:53.293Z,62.40
2018-04-08T21:08:20.135Z,62.50
2018-04-08T21:10:47.388Z,63.40
2018-04-08T21:13:14.224Z,63.40
2018-04-08T21:15:41.091Z,63.30
2018-04-08T21:18:07.929Z,63.60
2018-04-08T21:20:34.857Z,63.00
2018-04-08T21:23:01.716Z,63.10
2018-04-08T21:25:28.557Z,63.20
2018-04-08T21:27:55.428Z,63.50
2018-04-08T21:30:22.293Z,63.70
2018-04-08T21:32:49.168Z,63.70
2018-04-08T21:35:16.009Z,63.70
2018-04-08T21:37:42.849Z,63.80
2018-04-08T21:40:09.717Z,63.90
2018-04-08T21:42:36.576Z,64.10
2018-04-08T21:45:03.533Z,64.50
2018-04-08T21:47:30.399Z,64.40
2018-04-08T21:49:57.261Z,64.30
2018-04-08T21:52:24.121Z,64.40
2018-04-08T21:54:51.061Z,64.40
2018-04-08T21:57:17.923Z,64.70
2018-04-08T21:59:44.778Z,64.60
2018-04-08T22:02:11.696Z,64.60
2018-04-08T22:04:38.959Z,64.30
2018-04-08T22:07:06.272Z,64.60
2018-04-08T22:09:33.132Z,64.60
2018-04-08T22:11:59.981Z,64.40
2018-04-08T22:14:26.848Z,64.40
2018-04-08T22:16:53.793Z,64.60
2018-04-08T22:19:20.633Z,64.60
2018-04-08T22:21:47.892Z,65.00
2018-04-08T22:24:15.127Z,65.20
2018-04-08T22:26:41.994Z,65.20
2018-04-08T22:29:08.855Z,65.20
2018-04-08T22:31:35.768Z,65.40
2018-04-08T22:34:02.643Z,65.20
2018-04-08T22:36:29.573Z,65.00
2018-04-08T22:38:56.536Z,65.00
2018-04-08T22:41:23.482Z,65.40
2018-04-08T22:43:50.324Z,65.30
2018-04-08T22:46:17.618Z,65.80
2018-04-08T22:48:44.477Z,65.80
2018-04-08T22:51:11.322Z,65.60
2018-04-08T22:53:38.430Z,65.40
2018-04-08T22:56:05.349Z,65.50
2018-04-08T22:58:32.218Z,65.70
2018-04-08T23:00:59.063Z,65.70
2018-04-08T23:03:25.920Z,66.00
2018-04-08T23:05:52.882Z,65.90
2018-04-08T23:08:19.849Z,65.90
2018-04-08T23:10:46.792Z,66.00
2018-04-08T23:13:13.685Z,66.00
2018-04-08T23:15:40.640Z,65.90
2018-04-08T23:18:07.515Z,66.00
2018-04-08T23:20:34.351Z,66.20
2018-04-08T23:23:01.205Z,66.60
2018-04-08T23:25:28.052Z,67.00
2018-04-08T23:27:54.914Z,67.30
2018-04-08T23:30:21.748Z,67.20
2018-04-08T23:32:48.717Z,67.00
2018-04-08T23:35:15.586Z,66.70
2018-04-08T23:37:42.442Z,66.60
2018-04-08T23:40:09.307Z,66.80
2018-04-08T23:42:36.151Z,66.50
2018-04-08T23:45:03.015Z,66.50
2018-04-08T23:47:29.858Z,66.90
2018-04-08T23:49:56.748Z,67.20
2018-04-08T23:52:23.592Z,67.70
2018-04-08T23:54:50.458Z,67.90
2018-04-08T23:57:17.305Z,67.80
2018-04-08T23:59:44.159Z,67.80
